Terminal Aerodrome Forecast
Issued by NWS Tampa Bay Area, FL

Home | Current Version | Previous Version | Text Only | Print | Product List | Glossary On
Versions: 1 2 3 4 5 6 7 8 9 10 11 12
702
FTUS42 KTBW 291122
TAFFMY
TAF
KFMY 291122Z 2912/3012 VRB03KT 6SM BR SKC
     FM291400 15005KT P6SM FEW040
     FM291700 18007KT P6SM SCT045
     FM292000 26010KT P6SM FEW060 SCT250
     FM300100 VRB04KT P6SM SCT250=

USA.gov is the U.S. government's official web portal to all federal, state and local government web resources and services.